Time;durP1;ratioP1;P1;durP2;ratioP2;P2;SDS_P1;SDS_P2;PMS_P1;PMS_P2;Temp;Humidity;BMP_temperature;BMP_pressure;BME280_temperature;BME280_humidity;BME280_pressure;Samples;Min_cycle;Max_cycle;Signal;HPM_P1;HPM_P2
2023/04/17 00:02:03;;;;;;;2.95;0.43;;;19.70;99.90;;;;;;5047643;28;20028;-62
2023/04/17 00:04:30;;;;;;;2.83;0.88;;;19.90;99.90;;;;;;5047209;28;20041;-65
2023/04/17 00:06:58;;;;;;;2.10;0.93;;;20.10;99.90;;;;;;5047194;28;20086;-69
2023/04/17 00:09:26;;;;;;;3.60;0.55;;;20.20;99.90;;;;;;5041665;28;20378;-66
2023/04/17 00:11:53;;;;;;;6.90;0.60;;;20.30;99.90;;;;;;5040823;28;20017;-65
2023/04/17 00:14:20;;;;;;;1.08;0.60;;;20.40;99.90;;;;;;5051588;28;20114;-65
2023/04/17 00:16:51;;;;;;;2.28;0.50;;;20.50;99.90;;;;;;5044676;28;20068;-65
2023/04/17 00:19:19;;;;;;;1.85;0.50;;;20.60;99.90;;;;;;5044878;28;20120;-65
2023/04/17 00:21:46;;;;;;;3.08;0.45;;;20.70;99.90;;;;;;5045270;28;20025;-68
2023/04/17 00:24:16;;;;;;;3.35;0.63;;;20.80;99.90;;;;;;5028970;28;20040;-65
2023/04/17 00:26:44;;;;;;;1.52;0.50;;;20.90;99.90;;;;;;5046317;28;20071;-65
2023/04/17 00:29:11;;;;;;;1.80;0.55;;;21.00;99.90;;;;;;5047418;28;20025;-65
2023/04/17 00:31:39;;;;;;;2.38;0.75;;;21.20;99.90;;;;;;5045884;28;20108;-64
2023/04/17 00:34:06;;;;;;;3.90;0.95;;;21.30;99.90;;;;;;5051371;28;20040;-65
2023/04/17 00:36:34;;;;;;;4.03;0.80;;;21.40;99.90;;;;;;5043412;28;20052;-65
2023/04/17 00:39:01;;;;;;;5.68;0.80;;;21.40;99.80;;;;;;5038287;28;20040;-65
2023/04/17 00:41:29;;;;;;;1.73;0.52;;;21.40;99.20;;;;;;5048307;28;20025;-65
2023/04/17 00:43:56;;;;;;;4.35;1.00;;;21.40;99.90;;;;;;5046975;28;20367;-64
2023/04/17 00:46:24;;;;;;;2.05;0.60;;;21.50;99.90;;;;;;5045891;28;20560;-65
2023/04/17 00:48:52;;;;;;;2.75;0.60;;;21.60;98.80;;;;;;5047988;28;20033;-65
2023/04/17 00:51:19;;;;;;;5.45;0.80;;;21.70;98.60;;;;;;5055923;28;20021;-65
2023/04/17 00:53:48;;;;;;;1.98;0.60;;;21.70;98.30;;;;;;5047128;28;20028;-65
2023/04/17 00:56:15;;;;;;;6.25;0.70;;;21.70;98.60;;;;;;5051066;28;20038;-65
2023/04/17 00:58:44;;;;;;;2.72;1.00;;;21.70;98.90;;;;;;5059142;28;20021;-67
2023/04/17 01:01:12;;;;;;;3.83;0.88;;;21.90;99.40;;;;;;5026713;28;20041;-65
2023/04/17 01:03:40;;;;;;;2.20;0.57;;;22.00;97.50;;;;;;5045331;28;20040;-64
2023/04/17 01:06:07;;;;;;;3.25;0.80;;;22.10;96.80;;;;;;5025654;28;20478;-65
2023/04/17 01:08:41;;;;;;;5.13;0.90;;;22.20;97.70;;;;;;5049502;28;20477;-65
2023/04/17 01:11:09;;;;;;;6.13;1.60;;;22.20;96.30;;;;;;5053859;28;20104;-65
2023/04/17 01:13:55;;;;;;;2.38;0.50;;;22.30;95.90;;;;;;5038042;28;20052;-65
2023/04/17 01:16:22;;;;;;;1.65;0.60;;;22.30;95.70;;;;;;5025876;28;20553;-65
2023/04/17 01:18:50;;;;;;;4.50;1.42;;;22.10;95.20;;;;;;5050428;28;20036;-64
2023/04/17 01:21:17;;;;;;;2.03;0.60;;;21.90;95.70;;;;;;5055225;28;20021;-64
2023/04/17 01:23:51;;;;;;;2.35;0.57;;;21.70;96.30;;;;;;5054136;28;20041;-64
2023/04/17 01:26:20;;;;;;;3.55;0.80;;;21.50;97.00;;;;;;5046403;28;21334;-65
2023/04/17 01:28:56;;;;;;;2.50;0.55;;;21.50;96.70;;;;;;5055396;28;20048;-64
2023/04/17 01:31:24;;;;;;;3.08;0.40;;;21.40;96.40;;;;;;5057740;28;20051;-66
2023/04/17 01:33:52;;;;;;;3.05;0.47;;;21.40;97.10;;;;;;5051952;28;20051;-63
2023/04/17 01:36:20;;;;;;;2.92;0.68;;;21.50;96.10;;;;;;5055368;28;20568;-64
2023/04/17 01:38:50;;;;;;;2.40;0.38;;;21.60;96.80;;;;;;5040995;28;20083;-66
2023/04/17 01:41:18;;;;;;;2.95;0.70;;;21.80;98.10;;;;;;5054762;28;20074;-65
2023/04/17 01:43:46;;;;;;;5.03;0.65;;;21.90;98.60;;;;;;5032653;28;20367;-65
2023/04/17 01:46:14;;;;;;;3.10;1.08;;;22.20;98.90;;;;;;5051144;28;20044;-64
2023/04/17 01:48:41;;;;;;;5.13;0.60;;;22.30;96.80;;;;;;5057601;28;20032;-66
2023/04/17 01:51:09;;;;;;;1.92;0.55;;;22.30;94.50;;;;;;5055539;28;20112;-64
2023/04/17 01:53:37;;;;;;;3.55;0.75;;;22.40;94.90;;;;;;5050598;28;20433;-64
2023/04/17 01:56:05;;;;;;;4.05;0.60;;;22.40;95.80;;;;;;5057363;28;20014;-65
2023/04/17 01:58:32;;;;;;;3.63;0.80;;;22.40;95.30;;;;;;5062553;28;20056;-65
2023/04/17 02:01:00;;;;;;;5.68;0.57;;;22.40;95.50;;;;;;5046152;28;20021;-65
2023/04/17 02:03:27;;;;;;;2.00;0.50;;;22.40;95.50;;;;;;5050404;28;20025;-66
2023/04/17 02:05:55;;;;;;;3.35;0.65;;;22.40;95.20;;;;;;5034902;28;20025;-65
2023/04/17 02:08:22;;;;;;;2.45;0.70;;;22.40;95.10;;;;;;5060139;28;20028;-64
2023/04/17 02:10:50;;;;;;;4.70;1.58;;;22.40;96.00;;;;;;5049801;28;20025;-64
2023/04/17 02:13:20;;;;;;;2.30;0.75;;;22.50;95.40;;;;;;5041057;28;20072;-66
2023/04/17 02:15:48;;;;;;;4.57;0.60;;;22.80;95.10;;;;;;5054918;28;21458;-66
2023/04/17 02:18:15;;;;;;;2.83;0.70;;;23.10;94.40;;;;;;5048431;28;20478;-66
2023/04/17 02:20:43;;;;;;;1.98;0.80;;;23.10;92.30;;;;;;5042907;28;20071;-66
2023/04/17 02:23:14;;;;;;;2.55;0.80;;;23.10;92.50;;;;;;5038443;28;20512;-65
2023/04/17 02:25:41;;;;;;;3.25;0.80;;;23.00;93.60;;;;;;5052503;28;20048;-66
2023/04/17 02:28:09;;;;;;;5.72;1.17;;;22.60;92.40;;;;;;5034308;28;20093;-65
2023/04/17 02:30:37;;;;;;;1.70;0.50;;;22.40;93.40;;;;;;5027802;28;20091;-66
2023/04/17 02:33:04;;;;;;;2.75;0.70;;;22.30;95.00;;;;;;5047018;28;20082;-65
2023/04/17 02:35:32;;;;;;;3.00;1.13;;;22.20;95.90;;;;;;5048088;28;20155;-65
2023/04/17 02:38:00;;;;;;;4.28;0.90;;;22.10;96.20;;;;;;5046748;28;20025;-64
2023/04/17 02:40:30;;;;;;;5.70;1.35;;;22.00;96.90;;;;;;5030358;28;20056;-67
2023/04/17 02:42:57;;;;;;;3.15;0.90;;;22.20;99.90;;;;;;5027356;28;20021;-64
2023/04/17 02:45:25;;;;;;;3.50;1.15;;;22.60;96.80;;;;;;5037234;28;20029;-65
2023/04/17 02:47:52;;;;;;;3.97;0.90;;;23.00;94.50;;;;;;5045966;28;20018;-65
2023/04/17 02:50:20;;;;;;;2.85;0.68;;;23.10;91.70;;;;;;5042632;28;20025;-63
2023/04/17 02:52:47;;;;;;;2.03;0.77;;;23.40;93.50;;;;;;5032211;28;20036;-65
2023/04/17 02:55:15;;;;;;;2.95;0.60;;;23.80;91.70;;;;;;5042308;28;20167;-66
2023/04/17 02:57:42;;;;;;;3.63;0.65;;;24.00;89.10;;;;;;5047783;28;20039;-65
2023/04/17 03:00:13;;;;;;;3.05;0.63;;;24.20;91.50;;;;;;5051643;28;20028;-65
2023/04/17 03:02:41;;;;;;;2.47;0.50;;;24.50;90.00;;;;;;5048474;28;20493;-64
2023/04/17 03:05:19;;;;;;;2.78;0.50;;;24.70;85.70;;;;;;5051073;28;20134;-65
2023/04/17 03:07:46;;;;;;;2.10;0.68;;;24.70;84.30;;;;;;5048881;28;20025;-65
2023/04/17 03:10:14;;;;;;;3.78;0.68;;;24.70;83.00;;;;;;5064766;28;20026;-65
2023/04/17 03:12:41;;;;;;;4.53;0.77;;;24.40;84.30;;;;;;5054185;28;20413;-65
2023/04/17 03:15:09;;;;;;;2.65;0.60;;;24.40;84.90;;;;;;5054731;28;20025;-65
2023/04/17 03:17:39;;;;;;;2.15;0.60;;;24.40;84.60;;;;;;5063935;28;20461;-65
2023/04/17 03:20:12;;;;;;;3.30;0.70;;;24.60;85.40;;;;;;5054833;28;20037;-65
2023/04/17 03:22:39;;;;;;;5.75;0.63;;;24.80;82.60;;;;;;5026700;28;20029;-66
2023/04/17 03:25:07;;;;;;;2.58;0.60;;;25.00;82.70;;;;;;5046207;28;20047;-66
2023/04/17 03:27:35;;;;;;;2.47;0.90;;;25.30;81.30;;;;;;5040820;28;20021;-65
2023/04/17 03:30:02;;;;;;;2.03;0.80;;;25.50;78.00;;;;;;5049302;28;20032;-66
2023/04/17 03:32:30;;;;;;;2.10;0.57;;;25.60;73.40;;;;;;5042921;28;20021;-66
2023/04/17 03:34:57;;;;;;;2.55;0.98;;;25.40;72.20;;;;;;5042669;28;20168;-65
2023/04/17 03:37:24;;;;;;;3.80;0.90;;;25.30;76.60;;;;;;5040091;28;20453;-66
2023/04/17 03:39:52;;;;;;;6.07;0.80;;;25.40;75.80;;;;;;5040333;28;20024;-66
2023/04/17 03:42:19;;;;;;;5.55;0.75;;;25.80;76.60;;;;;;5042335;28;20079;-65
2023/04/17 03:44:47;;;;;;;3.97;0.82;;;25.90;71.00;;;;;;5033966;28;20037;-66
2023/04/17 03:47:14;;;;;;;8.65;2.92;;;25.90;72.30;;;;;;5021321;28;20037;-66
2023/04/17 03:49:42;;;;;;;4.78;1.02;;;25.80;68.50;;;;;;5031002;28;20030;-66
2023/04/17 03:52:09;;;;;;;3.00;0.57;;;25.80;72.60;;;;;;5043544;28;20025;-66
2023/04/17 03:54:37;;;;;;;2.33;0.70;;;25.70;71.80;;;;;;5034620;28;20478;-66
2023/04/17 03:57:04;;;;;;;3.03;0.60;;;25.20;71.30;;;;;;5046691;28;20029;-66
2023/04/17 03:59:32;;;;;;;3.08;0.80;;;25.10;72.00;;;;;;5030518;28;20025;-66
2023/04/17 04:02:00;;;;;;;2.20;0.75;;;25.10;71.30;;;;;;5041701;28;20041;-65
2023/04/17 04:04:27;;;;;;;5.55;0.88;;;25.00;70.90;;;;;;5046259;28;20040;-66
2023/04/17 04:06:56;;;;;;;3.47;0.68;;;24.80;71.10;;;;;;5037717;28;20096;-65
2023/04/17 04:09:24;;;;;;;2.83;0.73;;;25.00;71.50;;;;;;5018346;28;20025;-62
2023/04/17 04:11:52;;;;;;;3.28;0.70;;;25.10;72.20;;;;;;5042414;28;20071;-62
2023/04/17 04:14:19;;;;;;;5.00;0.90;;;25.00;72.40;;;;;;5048660;28;20157;-62
2023/04/17 04:16:47;;;;;;;2.88;0.55;;;24.90;70.40;;;;;;5025816;28;20386;-65
2023/04/17 04:19:14;;;;;;;3.63;1.00;;;24.70;71.60;;;;;;5035943;28;20026;-66
2023/04/17 04:21:42;;;;;;;3.90;1.30;;;24.40;70.90;;;;;;5026737;28;20032;-67
2023/04/17 04:24:12;;;;;;;6.72;1.20;;;24.20;73.10;;;;;;5058684;28;20494;-65
2023/04/17 04:26:39;;;;;;;6.45;1.88;;;24.00;80.40;;;;;;5039831;28;20489;-65
2023/04/17 04:29:08;;;;;;;9.98;1.67;;;23.30;90.50;;;;;;5029361;28;20024;-65
2023/04/17 04:31:36;;;;;;;5.97;1.08;;;23.00;93.70;;;;;;5037568;28;20103;-65
2023/04/17 04:34:04;;;;;;;4.13;1.13;;;22.80;96.00;;;;;;5060340;28;20048;-66
2023/04/17 04:36:34;;;;;;;4.20;1.10;;;22.80;96.80;;;;;;5037234;28;20071;-66
2023/04/17 04:39:05;;;;;;;7.47;1.23;;;22.70;96.70;;;;;;5022395;28;20025;-65
2023/04/17 04:41:33;;;;;;;4.68;1.50;;;22.70;97.00;;;;;;5042642;28;20025;-65
2023/04/17 04:44:00;;;;;;;6.60;1.60;;;22.60;97.40;;;;;;5041585;28;20073;-64
2023/04/17 04:46:28;;;;;;;7.63;1.15;;;22.40;99.00;;;;;;5042111;28;20017;-64
2023/04/17 04:48:55;;;;;;;4.63;1.20;;;22.40;99.80;;;;;;5023679;28;20029;-65
2023/04/17 04:51:23;;;;;;;4.70;1.15;;;22.40;99.90;;;;;;5038985;28;20017;-65
2023/04/17 04:53:50;;;;;;;10.98;1.55;;;22.50;99.90;;;;;;5044650;28;20035;-65
2023/04/17 04:56:18;;;;;;;4.65;0.80;;;22.60;99.90;;;;;;5050646;28;20021;-65
2023/04/17 04:58:45;;;;;;;5.82;1.75;;;22.60;99.90;;;;;;5051978;28;20036;-65
2023/04/17 05:01:13;;;;;;;3.72;0.98;;;22.60;99.90;;;;;;5054660;28;20039;-66
2023/04/17 05:03:40;;;;;;;3.47;1.10;;;22.40;99.90;;;;;;5043820;28;20813;-66
2023/04/17 05:06:08;;;;;;;5.75;1.20;;;22.40;99.90;;;;;;5048374;28;20025;-66
2023/04/17 05:08:35;;;;;;;4.57;1.10;;;22.30;99.90;;;;;;5051013;28;20457;-66
2023/04/17 05:11:03;;;;;;;6.15;0.80;;;22.30;99.90;;;;;;5035525;28;20040;-67
2023/04/17 05:13:30;;;;;;;5.40;1.13;;;22.20;99.90;;;;;;5038083;28;20242;-66
2023/04/17 05:15:58;;;;;;;6.93;1.30;;;22.20;99.90;;;;;;5024964;28;20051;-65
2023/04/17 05:18:25;;;;;;;5.45;1.20;;;22.20;99.90;;;;;;5047164;28;20061;-68
2023/04/17 05:20:53;;;;;;;7.00;1.10;;;22.10;99.90;;;;;;5048848;28;20390;-67
2023/04/17 05:23:21;;;;;;;7.80;1.55;;;22.10;99.90;;;;;;5044088;28;20704;-67
2023/04/17 05:25:49;;;;;;;2.80;0.75;;;22.10;99.90;;;;;;5048725;28;20067;-67
2023/04/17 05:28:16;;;;;;;8.65;1.15;;;21.90;99.90;;;;;;5045502;28;20365;-65
2023/04/17 05:30:44;;;;;;;6.88;1.27;;;21.70;99.90;;;;;;5026254;28;20072;-66
2023/04/17 05:33:12;;;;;;;3.42;0.77;;;21.60;99.90;;;;;;5047278;28;20425;-65
2023/04/17 05:35:40;;;;;;;6.72;1.25;;;21.50;99.90;;;;;;5039676;28;20056;-64
2023/04/17 05:38:07;;;;;;;7.60;1.20;;;21.50;99.90;;;;;;5042279;28;20033;-64
2023/04/17 05:40:35;;;;;;;9.07;0.98;;;21.50;99.90;;;;;;5036536;28;20045;-66
2023/04/17 05:43:12;;;;;;;5.30;1.00;;;21.50;99.90;;;;;;5027536;28;20025;-63
2023/04/17 05:45:42;;;;;;;3.20;0.80;;;21.50;99.90;;;;;;5044383;28;20038;-64
2023/04/17 05:48:10;;;;;;;5.35;1.02;;;21.40;99.90;;;;;;5045297;28;20104;-61
2023/04/17 05:50:37;;;;;;;8.00;1.30;;;21.40;99.90;;;;;;5045140;28;20082;-65
2023/04/17 05:53:05;;;;;;;7.18;0.90;;;21.30;99.90;;;;;;5041009;28;20090;-61
2023/04/17 05:55:33;;;;;;;4.45;1.17;;;21.20;99.90;;;;;;5044452;28;20037;-62
2023/04/17 05:58:01;;;;;;;4.60;0.77;;;21.20;99.90;;;;;;5042169;28;20469;-61
2023/04/17 06:00:29;;;;;;;5.20;1.20;;;21.20;99.90;;;;;;5045139;28;20108;-62
2023/04/17 06:02:57;;;;;;;4.97;1.02;;;21.20;99.90;;;;;;5038328;28;20017;-62
2023/04/17 06:05:24;;;;;;;6.93;1.10;;;21.10;99.90;;;;;;5049416;28;20032;-63
2023/04/17 06:07:52;;;;;;;5.95;0.90;;;21.10;99.90;;;;;;5056105;28;20109;-61
2023/04/17 06:10:19;;;;;;;4.85;0.90;;;21.10;99.90;;;;;;5024711;28;20029;-62
2023/04/17 06:12:47;;;;;;;6.40;0.90;;;21.00;99.90;;;;;;5041390;28;20377;-61
2023/04/17 06:15:14;;;;;;;4.03;0.80;;;20.90;99.90;;;;;;5047026;28;20025;-61
2023/04/17 06:17:42;;;;;;;4.03;0.90;;;20.80;99.90;;;;;;5049106;28;20043;-63
2023/04/17 06:20:10;;;;;;;5.13;1.00;;;20.70;99.90;;;;;;5053438;28;20035;-62
2023/04/17 06:22:39;;;;;;;4.57;1.25;;;20.60;99.90;;;;;;5044728;28;20021;-64
2023/04/17 06:25:07;;;;;;;8.20;1.10;;;20.60;99.90;;;;;;5045208;28;20033;-62
2023/04/17 06:27:35;;;;;;;3.88;1.02;;;20.70;99.90;;;;;;5044096;28;20471;-62
2023/04/17 06:30:03;;;;;;;7.00;1.52;;;20.70;99.90;;;;;;5034980;28;20039;-62
2023/04/17 06:32:30;;;;;;;5.20;1.20;;;20.70;99.90;;;;;;5046566;28;20454;-62
2023/04/17 06:34:58;;;;;;;11.27;1.48;;;20.70;99.90;;;;;;5044305;28;20013;-63
2023/04/17 06:37:25;;;;;;;3.58;1.02;;;20.60;99.90;;;;;;5047853;28;20060;-64
2023/04/17 06:39:53;;;;;;;2.10;1.02;;;20.50;99.90;;;;;;5049006;28;20024;-62
2023/04/17 06:42:20;;;;;;;7.35;1.17;;;20.30;99.90;;;;;;5045899;28;20025;-62
2023/04/17 06:44:48;;;;;;;4.18;1.15;;;20.30;99.90;;;;;;5045681;28;20033;-65
2023/04/17 06:47:15;;;;;;;5.22;0.90;;;20.20;99.90;;;;;;5042002;28;20032;-66
2023/04/17 06:49:42;;;;;;;6.50;1.40;;;20.10;99.90;;;;;;5048540;28;20047;-67
2023/04/17 06:52:10;;;;;;;6.18;1.35;;;20.10;99.90;;;;;;5033538;28;20558;-66
2023/04/17 06:54:38;;;;;;;9.05;3.03;;;20.00;99.90;;;;;;5044496;28;20059;-65
2023/04/17 06:57:09;;;;;;;4.57;0.73;;;19.90;99.90;;;;;;5042645;28;20025;-66
2023/04/17 06:59:37;;;;;;;2.40;0.77;;;19.80;99.90;;;;;;5026168;28;20513;-65
2023/04/17 07:02:04;;;;;;;3.40;1.75;;;19.60;99.90;;;;;;5042991;28;20377;-64
2023/04/17 07:04:32;;;;;;;11.10;1.05;;;19.60;99.90;;;;;;5044631;28;20461;-65
2023/04/17 07:06:59;;;;;;;10.27;1.48;;;19.50;99.90;;;;;;5042655;28;20998;-64
2023/04/17 07:09:27;;;;;;;4.40;0.75;;;19.40;99.90;;;;;;5028821;28;20029;-66
2023/04/17 07:11:54;;;;;;;7.28;2.05;;;19.40;99.90;;;;;;5029943;28;20016;-66
2023/04/17 07:14:22;;;;;;;4.82;0.98;;;19.30;99.90;;;;;;5031951;28;20048;-66
2023/04/17 07:16:49;;;;;;;9.00;1.10;;;19.20;99.90;;;;;;5050019;28;20048;-65
2023/04/17 07:19:17;;;;;;;6.22;1.25;;;19.10;99.90;;;;;;5045486;28;20111;-66
2023/04/17 07:21:44;;;;;;;4.47;1.00;;;19.10;99.90;;;;;;5045270;28;20048;-65
2023/04/17 07:24:12;;;;;;;5.85;1.20;;;19.00;99.90;;;;;;5048997;28;20114;-68
2023/04/17 07:26:42;;;;;;;3.90;1.17;;;18.90;99.90;;;;;;5031157;28;20029;-68
2023/04/17 07:29:09;;;;;;;5.65;0.90;;;18.80;99.90;;;;;;5051823;28;20068;-68
2023/04/17 07:31:37;;;;;;;3.58;0.70;;;18.70;99.90;;;;;;5046573;28;20028;-68
2023/04/17 07:34:05;;;;;;;5.50;0.75;;;18.60;99.90;;;;;;5049969;28;20033;-66
2023/04/17 07:36:32;;;;;;;4.53;0.77;;;18.50;99.90;;;;;;5022646;28;20021;-66
2023/04/17 07:39:00;;;;;;;6.22;1.20;;;18.40;99.90;;;;;;5023951;28;20040;-64
2023/04/17 07:41:28;;;;;;;8.27;1.63;;;18.30;99.90;;;;;;5052602;28;20104;-63
2023/04/17 07:43:55;;;;;;;3.67;1.25;;;18.30;99.90;;;;;;5046535;28;20029;-65
2023/04/17 07:46:23;;;;;;;7.15;1.08;;;18.20;99.90;;;;;;5042094;28;20075;-64
2023/04/17 07:48:50;;;;;;;6.00;0.77;;;18.10;99.90;;;;;;5029767;28;20029;-64
2023/04/17 07:51:18;;;;;;;8.43;0.90;;;18.10;99.90;;;;;;5046889;28;20047;-63
2023/04/17 07:53:45;;;;;;;5.80;1.17;;;18.10;99.90;;;;;;5031092;28;20115;-63
2023/04/17 07:56:13;;;;;;;10.35;2.40;;;18.10;99.90;;;;;;5046375;28;20113;-64
2023/04/17 07:58:41;;;;;;;4.30;1.23;;;18.00;99.90;;;;;;5025940;28;20028;-64
2023/04/17 08:01:08;;;;;;;3.65;1.55;;;17.90;99.90;;;;;;5030657;28;20036;-64
2023/04/17 08:03:39;;;;;;;6.72;1.25;;;17.90;99.90;;;;;;5018982;28;20482;-62
2023/04/17 08:06:06;;;;;;;5.90;0.90;;;17.80;99.90;;;;;;5039865;28;20035;-63
2023/04/17 08:08:34;;;;;;;2.47;0.90;;;17.70;99.90;;;;;;5032880;28;20052;-64
2023/04/17 08:11:01;;;;;;;5.75;1.05;;;17.70;99.90;;;;;;5048273;28;20036;-63
2023/04/17 08:13:31;;;;;;;2.38;0.90;;;17.60;99.90;;;;;;5059333;28;20041;-64
2023/04/17 08:15:58;;;;;;;5.45;2.15;;;17.60;99.90;;;;;;5043398;28;20115;-64
2023/04/17 08:18:26;;;;;;;7.93;1.60;;;17.50;99.90;;;;;;5029700;28;20585;-63
2023/04/17 08:20:53;;;;;;;6.53;1.10;;;17.50;99.90;;;;;;5019501;28;20128;-63
2023/04/17 08:23:20;;;;;;;4.38;1.08;;;17.40;99.90;;;;;;5038205;28;20070;-63
2023/04/17 08:25:51;;;;;;;4.53;1.20;;;17.40;99.90;;;;;;5027772;28;20080;-61
2023/04/17 08:28:19;;;;;;;7.57;2.13;;;17.30;99.90;;;;;;5031117;28;20025;-64
2023/04/17 08:30:46;;;;;;;5.95;1.67;;;17.30;99.90;;;;;;5041584;28;20381;-65
2023/04/17 08:33:15;;;;;;;6.55;1.52;;;17.30;99.90;;;;;;5044960;28;20032;-65
2023/04/17 08:35:43;;;;;;;6.53;1.05;;;17.30;99.90;;;;;;5027684;28;20025;-61
2023/04/17 08:38:12;;;;;;;6.18;2.17;;;17.20;99.90;;;;;;5037565;28;20310;-64
2023/04/17 08:40:47;;;;;;;4.95;1.05;;;17.30;99.90;;;;;;5040484;28;20025;-62
2023/04/17 08:43:15;;;;;;;;;;;17.20;99.90;;;;;;5037358;28;20114;-63
2023/04/17 08:45:55;;;;;;;9.25;1.35;;;17.30;99.90;;;;;;5033879;28;19917;-64
2023/04/17 08:48:26;;;;;;;6.97;1.27;;;17.20;99.90;;;;;;5040731;28;20078;-61
2023/04/17 08:50:53;;;;;;;10.25;1.67;;;17.20;99.90;;;;;;5030879;28;20025;-63
2023/04/17 08:53:21;;;;;;;5.80;1.38;;;17.20;99.90;;;;;;5045763;28;20032;-63
2023/04/17 08:55:49;;;;;;;4.82;1.00;;;17.20;99.90;;;;;;5022090;28;20107;-63
2023/04/17 08:58:17;;;;;;;7.72;1.52;;;17.20;99.90;;;;;;5035921;28;20100;-65
2023/04/17 09:00:45;;;;;;;4.00;1.05;;;17.20;99.90;;;;;;5022864;28;20082;-65
2023/04/17 09:03:14;;;;;;;12.52;2.35;;;17.20;99.90;;;;;;5022151;28;20041;-64
2023/04/17 09:05:47;;;;;;;6.68;1.60;;;17.20;99.90;;;;;;5038273;28;20037;-63
2023/04/17 09:08:24;;;;;;;8.60;1.05;;;17.20;99.90;;;;;;5026307;28;21552;-64
2023/04/17 09:10:53;;;;;;;5.85;1.48;;;17.30;99.90;;;;;;5035023;28;20040;-64
2023/04/17 09:13:26;;;;;;;4.10;1.15;;;17.30;99.90;;;;;;5035902;28;20054;-64
2023/04/17 09:16:19;;;;;;;6.18;1.33;;;17.30;99.90;;;;;;5017064;28;20067;-64
2023/04/17 09:18:48;;;;;;;6.75;1.73;;;17.40;99.90;;;;;;5043056;28;20021;-65
2023/04/17 09:21:20;;;;;;;7.78;3.28;;;17.40;99.90;;;;;;5034317;28;20028;-63
2023/04/17 09:23:54;;;;;;;4.88;1.45;;;17.40;99.90;;;;;;5032627;28;20393;-64
2023/04/17 09:26:27;;;;;;;12.27;1.58;;;17.40;99.90;;;;;;5038481;28;20401;-63
2023/04/17 09:29:06;;;;;;;6.13;1.60;;;17.40;99.90;;;;;;5018012;28;20032;-63
2023/04/17 09:31:34;;;;;;;7.72;1.20;;;17.30;99.90;;;;;;5038575;28;20040;-64
2023/04/17 09:34:14;;;;;;;7.63;1.30;;;17.30;99.90;;;;;;5045213;28;20568;-63
2023/04/17 09:36:42;;;;;;;5.60;1.67;;;17.20;99.90;;;;;;5046085;28;20634;-65
2023/04/17 09:39:23;;;;;;;7.68;1.10;;;17.20;99.90;;;;;;5044271;28;20029;-64
2023/04/17 09:42:00;;;;;;;5.38;1.33;;;17.10;99.90;;;;;;5041572;28;20068;-65
2023/04/17 09:44:32;;;;;;;4.78;1.08;;;17.00;99.90;;;;;;5046988;28;20063;-64
2023/04/17 09:47:01;;;;;;;6.80;1.30;;;16.90;99.90;;;;;;5051479;28;20100;-64
2023/04/17 09:49:55;;;;;;;4.95;1.30;;;16.90;99.90;;;;;;5032744;28;20127;-64
2023/04/17 09:52:23;;;;;;;6.07;1.40;;;16.80;99.90;;;;;;5043825;28;20493;-65
2023/04/17 09:54:52;;;;;;;7.28;1.42;;;16.80;99.90;;;;;;5036041;28;20055;-65
2023/04/17 09:57:20;;;;;;;6.68;1.38;;;16.70;99.90;;;;;;5054402;28;20415;-65
2023/04/17 09:59:48;;;;;;;8.68;1.70;;;16.60;99.90;;;;;;5046687;28;20036;-65
2023/04/17 10:02:19;;;;;;;3.95;1.10;;;16.50;99.90;;;;;;5030621;28;20044;-66
2023/04/17 10:04:47;;;;;;;6.35;1.40;;;16.40;99.90;;;;;;5047012;28;20033;-64
2023/04/17 10:07:16;;;;;;;4.90;1.70;;;16.40;99.90;;;;;;5046881;28;20384;-66
2023/04/17 10:09:44;;;;;;;5.47;1.40;;;16.30;99.90;;;;;;5046382;28;20017;-63
2023/04/17 10:12:19;;;;;;;5.93;1.55;;;16.20;99.90;;;;;;5051529;28;20025;-64
2023/04/17 10:14:51;;;;;;;6.20;2.28;;;16.10;99.90;;;;;;5048074;28;20041;-64
2023/04/17 10:17:27;;;;;;;4.68;1.23;;;16.10;99.90;;;;;;5031961;28;20033;-65
2023/04/17 10:19:55;;;;;;;8.25;2.40;;;16.10;99.90;;;;;;5043483;28;20051;-65
2023/04/17 10:22:23;;;;;;;6.18;1.17;;;16.10;99.90;;;;;;5053743;28;20489;-65
2023/04/17 10:25:14;;;;;;;4.50;0.98;;;16.10;99.90;;;;;;5049405;28;20037;-65
2023/04/17 10:27:44;;;;;;;8.90;2.45;;;16.10;99.90;;;;;;5044704;28;20037;-63
2023/04/17 10:30:13;;;;;;;5.15;1.67;;;16.00;99.90;;;;;;5051125;28;20025;-62
2023/04/17 10:32:44;;;;;;;3.67;1.30;;;16.00;99.90;;;;;;5047355;28;20025;-62
2023/04/17 10:35:18;;;;;;;6.65;1.23;;;15.90;99.90;;;;;;5047399;28;20091;-63
2023/04/17 10:37:52;;;;;;;8.10;1.40;;;15.80;99.90;;;;;;5046368;28;20025;-63
2023/04/17 10:40:25;;;;;;;6.47;2.05;;;15.80;99.90;;;;;;5024457;28;20044;-64
2023/04/17 10:43:13;;;;;;;3.63;1.25;;;15.80;99.90;;;;;;5045909;28;20047;-64
2023/04/17 10:46:08;;;;;;;5.45;1.67;;;15.80;99.90;;;;;;5026396;28;20044;-64
2023/04/17 10:48:41;;;;;;;6.05;1.38;;;15.70;99.90;;;;;;5043161;28;20021;-63
2023/04/17 10:51:27;;;;;;;8.13;2.33;;;15.70;99.90;;;;;;5029797;28;20135;-65
2023/04/17 10:53:56;;;;;;;4.78;1.63;;;15.70;99.90;;;;;;5044674;28;20031;-64
2023/04/17 10:56:39;;;;;;;4.70;1.70;;;15.60;99.90;;;;;;5026512;28;20535;-65
2023/04/17 10:59:11;;;;;;;5.03;1.70;;;15.60;99.90;;;;;;5046352;28;20031;-64
2023/04/17 11:01:40;;;;;;;5.40;1.63;;;15.50;99.90;;;;;;5036077;28;20037;-64
2023/04/17 11:04:09;;;;;;;6.20;1.50;;;15.50;99.90;;;;;;5038047;28;20033;-65
2023/04/17 11:06:40;;;;;;;8.32;1.85;;;15.50;99.90;;;;;;5049597;28;20071;-65
2023/04/17 11:09:09;;;;;;;10.38;1.77;;;15.50;99.90;;;;;;5046095;28;20031;-63
2023/04/17 11:11:43;;;;;;;12.75;3.10;;;15.50;99.90;;;;;;5050299;28;20107;-64
2023/04/17 11:14:16;;;;;;;10.57;2.25;;;15.50;99.90;;;;;;5044347;28;20451;-64
2023/04/17 11:16:45;;;;;;;6.40;2.05;;;15.50;99.90;;;;;;5029719;28;20456;-64
2023/04/17 11:19:20;;;;;;;7.07;2.25;;;15.50;99.90;;;;;;5038330;28;20022;-62
2023/04/17 11:21:52;;;;;;;9.35;2.97;;;15.50;99.90;;;;;;5031352;28;20044;-65
2023/04/17 11:24:30;;;;;;;10.00;2.30;;;15.50;99.90;;;;;;5043891;28;20047;-64
2023/04/17 11:27:00;;;;;;;9.25;2.35;;;15.60;99.90;;;;;;5041999;28;20033;-65
2023/04/17 11:29:28;;;;;;;9.88;2.60;;;15.60;99.90;;;;;;5039312;28;20029;-65
2023/04/17 11:31:59;;;;;;;11.55;1.67;;;15.60;99.90;;;;;;5024605;28;20646;-66
2023/04/17 11:34:26;;;;;;;8.63;2.00;;;15.60;99.90;;;;;;5033286;28;20027;-65
2023/04/17 11:36:59;;;;;;;10.20;1.70;;;15.60;99.90;;;;;;5026800;28;20017;-65
2023/04/17 11:39:29;;;;;;;5.97;2.40;;;15.60;99.90;;;;;;5054848;28;20040;-65
2023/04/17 11:41:57;;;;;;;20.40;2.72;;;15.50;99.90;;;;;;5038414;28;20017;-66
2023/04/17 11:44:25;;;;;;;14.43;2.63;;;15.40;99.90;;;;;;5037391;28;20036;-65
2023/04/17 11:47:00;;;;;;;12.95;1.95;;;15.40;99.90;;;;;;5049468;28;20798;-65
2023/04/17 11:49:37;;;;;;;12.02;1.88;;;15.40;99.90;;;;;;5056652;28;20036;-65
2023/04/17 11:52:05;;;;;;;8.10;2.03;;;15.40;99.90;;;;;;5051307;28;20136;-65
2023/04/17 11:54:37;;;;;;;13.30;1.90;;;15.40;99.90;;;;;;5049199;28;20021;-65
2023/04/17 11:57:06;;;;;;;11.23;1.77;;;15.40;99.90;;;;;;5049072;28;20021;-66
2023/04/17 11:59:36;;;;;;;12.50;2.45;;;15.40;99.90;;;;;;5056098;28;20025;-66
2023/04/17 12:02:06;;;;;;;10.88;2.15;;;15.40;99.90;;;;;;5034921;28;20090;-65
2023/04/17 12:04:38;;;;;;;11.90;2.47;;;15.40;99.90;;;;;;5027097;28;20579;-66
2023/04/17 12:07:06;;;;;;;14.40;2.92;;;15.30;99.90;;;;;;5039364;28;20032;-64
2023/04/17 12:09:35;;;;;;;8.30;3.15;;;15.40;99.90;;;;;;5031537;28;20075;-64
2023/04/17 12:12:07;;;;;;;16.95;3.95;;;15.40;99.90;;;;;;5037918;28;20738;-65
2023/04/17 12:14:34;;;;;;;10.75;2.63;;;15.40;99.90;;;;;;5003612;28;20098;-65
2023/04/17 12:17:02;;;;;;;10.73;2.38;;;15.40;99.90;;;;;;5007687;28;20113;-65
2023/04/17 12:19:30;;;;;;;9.38;2.08;;;15.40;99.90;;;;;;5004750;28;20383;-65
2023/04/17 12:21:58;;;;;;;9.10;2.10;;;15.40;99.90;;;;;;5001897;28;20042;-65
2023/04/17 12:24:26;;;;;;;10.55;1.70;;;15.30;99.90;;;;;;5001975;28;20034;-66
2023/04/17 12:26:53;;;;;;;6.80;1.73;;;15.30;99.90;;;;;;5006502;28;20026;-66
2023/04/17 12:29:20;;;;;;;14.52;2.05;;;15.20;99.90;;;;;;5004732;28;20176;-64
2023/04/17 12:31:48;;;;;;;17.38;2.47;;;15.20;99.90;;;;;;5004681;28;20022;-64
2023/04/17 12:34:15;;;;;;;9.05;2.28;;;15.10;99.90;;;;;;5002936;28;20022;-64
2023/04/17 12:36:43;;;;;;;10.25;2.55;;;15.00;99.90;;;;;;5002063;28;20092;-64
2023/04/17 12:39:11;;;;;;;3.88;1.48;;;15.00;99.90;;;;;;5002922;28;20025;-64
2023/04/17 12:41:39;;;;;;;7.45;1.45;;;14.90;99.90;;;;;;4998677;28;20099;-64
2023/04/17 12:44:06;;;;;;;8.77;1.70;;;14.80;99.90;;;;;;4991006;28;20027;-64
2023/04/17 12:46:34;;;;;;;10.32;1.95;;;14.80;99.90;;;;;;5000573;28;20030;-65
2023/04/17 12:49:02;;;;;;;12.63;1.92;;;14.70;99.90;;;;;;5005758;28;20041;-65
2023/04/17 12:51:31;;;;;;;9.57;2.05;;;14.70;99.90;;;;;;5003071;28;20108;-65
2023/04/17 12:53:58;;;;;;;10.88;1.85;;;14.70;99.90;;;;;;5006912;28;20041;-64
2023/04/17 12:56:26;;;;;;;8.88;1.42;;;14.60;99.90;;;;;;4996640;28;20025;-65